Time;durP1;ratioP1;P1;durP2;ratioP2;P2;SDS_P1;SDS_P2;PMS_P1;PMS_P2;Temp;Humidity;BMP_temperature;BMP_pressure;BME280_temperature;BME280_humidity;BME280_pressure;Samples;Min_cycle;Max_cycle;Signal;HPM_P1;HPM_P2
2021/09/02 00:00:19;;;;;;;4.33;3.93;;;;;22.10;101677.00;;;;2064919;28;20975;-54
2021/09/02 00:01:19;;;;;;;4.23;3.83;;;;;22.10;101678.00;;;;2066673;28;20261;-55
2021/09/02 00:02:19;;;;;;;4.03;3.73;;;;;22.10;101669.00;;;;2066949;28;20309;-54
2021/09/02 00:03:20;;;;;;;4.57;4.10;;;;;22.10;101675.00;;;;2066788;28;20214;-54
2021/09/02 00:04:20;;;;;;;4.47;4.17;;;;;22.10;101672.00;;;;2066591;28;20922;-55
2021/09/02 00:05:20;;;;;;;4.50;4.20;;;;;22.10;101666.00;;;;2067473;28;20589;-55
2021/09/02 00:06:21;;;;;;;4.27;3.97;;;;;22.10;101669.00;;;;2065342;28;20277;-55
2021/09/02 00:07:21;;;;;;;3.97;3.67;;;;;22.10;101670.00;;;;2064266;28;20353;-55
2021/09/02 00:08:22;;;;;;;4.10;3.80;;;;;22.10;101674.00;;;;2066573;28;20225;-54
2021/09/02 00:09:22;;;;;;;4.43;4.13;;;;;22.10;101677.00;;;;2066310;28;20217;-55
2021/09/02 00:10:22;;;;;;;4.20;3.90;;;;;22.10;101671.00;;;;2066536;28;20213;-55
2021/09/02 00:11:23;;;;;;;3.47;3.17;;;;;22.10;101678.00;;;;2067072;28;20321;-55
2021/09/02 00:12:23;;;;;;;4.80;4.30;;;;;22.10;101674.00;;;;2067273;28;20226;-55
2021/09/02 00:13:23;;;;;;;4.53;4.23;;;;;22.10;101670.00;;;;2070687;28;20233;-56
2021/09/02 00:14:24;;;;;;;4.47;4.07;;;;;22.10;101664.00;;;;2067597;28;20586;-55
2021/09/02 00:15:24;;;;;;;4.70;4.30;;;;;22.10;101668.00;;;;2071009;28;20257;-55
2021/09/02 00:16:24;;;;;;;4.13;3.73;;;;;22.10;101665.00;;;;2067408;28;20211;-55
2021/09/02 00:17:25;;;;;;;4.27;3.97;;;;;22.10;101665.00;;;;2067423;28;20219;-55
2021/09/02 00:18:25;;;;;;;4.23;3.90;;;;;22.10;101663.00;;;;2066251;28;20711;-55
2021/09/02 00:19:25;;;;;;;4.10;3.80;;;;;22.10;101673.00;;;;2066945;28;20300;-55
2021/09/02 00:20:27;;;;;;;4.53;4.20;;;;;22.10;101672.00;;;;2063973;28;20218;-55
2021/09/02 00:21:27;;;;;;;4.45;4.15;;;;;22.10;101663.00;;;;2066793;28;20218;-55
2021/09/02 00:22:28;;;;;;;3.93;3.63;;;;;22.10;101668.00;;;;2069942;28;20585;-58
2021/09/02 00:23:28;;;;;;;4.10;3.80;;;;;22.10;101663.00;;;;2063986;28;20606;-58
2021/09/02 00:24:29;;;;;;;4.07;3.77;;;;;22.10;101662.00;;;;2071210;28;20907;-55
2021/09/02 00:25:29;;;;;;;4.50;4.20;;;;;22.10;101666.00;;;;2065307;28;20285;-57
2021/09/02 00:26:29;;;;;;;4.73;4.33;;;;;22.10;101668.00;;;;2062697;28;20353;-56
2021/09/02 00:27:30;;;;;;;3.90;3.60;;;;;22.10;101665.00;;;;2069338;28;20237;-57
2021/09/02 00:28:30;;;;;;;4.30;4.00;;;;;22.10;101677.00;;;;2070869;28;20225;-56
2021/09/02 00:29:30;;;;;;;4.00;3.70;;;;;22.10;101664.00;;;;2070590;28;20721;-56
2021/09/02 00:30:31;;;;;;;4.10;3.80;;;;;22.10;101662.00;;;;2070850;28;20257;-56
2021/09/02 00:31:31;;;;;;;4.83;4.40;;;;;22.10;101662.00;;;;2070583;28;20226;-56
2021/09/02 00:32:31;;;;;;;4.53;4.23;;;;;22.10;101667.00;;;;2071320;28;20578;-55
2021/09/02 00:33:32;;;;;;;4.83;4.43;;;;;22.10;101661.00;;;;2071565;28;20222;-56
2021/09/02 00:34:32;;;;;;;4.87;4.47;;;;;22.10;101657.00;;;;2065739;28;20214;-55
2021/09/02 00:35:32;;;;;;;4.00;3.70;;;;;22.10;101662.00;;;;2064170;28;20215;-55
2021/09/02 00:36:33;;;;;;;4.93;4.40;;;;;22.10;101659.00;;;;2064129;28;20222;-56
2021/09/02 00:37:33;;;;;;;4.03;3.73;;;;;22.10;101655.00;;;;2063965;28;20226;-56
2021/09/02 00:38:34;;;;;;;4.87;4.47;;;;;22.10;101660.00;;;;2064257;28;20215;-55
2021/09/02 00:39:34;;;;;;;4.43;4.03;;;;;22.10;101665.00;;;;2067892;28;20210;-55
2021/09/02 00:40:34;;;;;;;4.50;4.20;;;;;22.10;101655.00;;;;2072443;28;20276;-57
2021/09/02 00:41:35;;;;;;;4.23;3.93;;;;;22.10;101652.00;;;;2072337;28;20218;-56
2021/09/02 00:42:35;;;;;;;4.80;4.40;;;;;22.10;101666.00;;;;2071789;28;20298;-55
2021/09/02 00:43:39;;;;;;;4.20;3.90;;;;;22.10;101660.00;;;;2072317;28;20237;-56
2021/09/02 00:44:41;;;;;;;4.00;3.70;;;;;22.10;101662.00;;;;2069430;28;20250;-55
2021/09/02 00:45:42;;;;;;;4.30;4.00;;;;;22.10;101673.00;;;;2064221;28;20897;-56
2021/09/02 00:46:42;;;;;;;4.00;3.70;;;;;22.10;101669.00;;;;2063895;28;20225;-56
2021/09/02 00:47:42;;;;;;;4.90;4.50;;;;;22.10;101660.00;;;;2063986;28;20769;-56
2021/09/02 00:48:49;;;;;;;4.13;3.83;;;;;22.10;101662.00;;;;2063731;28;20783;-56
2021/09/02 00:49:50;;;;;;;4.72;4.20;;;;;22.10;101664.00;;;;2064190;28;20250;-56
2021/09/02 00:50:50;;;;;;;4.30;3.83;;;;;22.10;101664.00;;;;2060376;28;20752;-55
2021/09/02 00:51:50;;;;;;;4.40;4.10;;;;;22.10;101665.00;;;;2071461;28;20305;-56
2021/09/02 00:52:51;;;;;;;4.10;3.80;;;;;22.10;101660.00;;;;2065620;28;20249;-55
2021/09/02 00:53:52;;;;;;;4.37;3.97;;;;;22.10;101657.00;;;;2063282;28;20250;-55
2021/09/02 00:54:54;;;;;;;4.00;3.70;;;;;22.10;101661.00;;;;2056311;28;20267;-55
2021/09/02 00:55:54;;;;;;;4.20;3.90;;;;;22.10;101656.00;;;;2071702;28;20582;-56
2021/09/02 00:56:55;;;;;;;4.23;3.93;;;;;22.10;101660.00;;;;2072167;28;20218;-55
2021/09/02 00:57:55;;;;;;;4.33;4.00;;;;;22.10;101663.00;;;;2072113;28;20244;-55
2021/09/02 00:58:55;;;;;;;4.70;4.30;;;;;22.10;101662.00;;;;2071604;28;20265;-56
2021/09/02 00:59:57;;;;;;;3.70;3.43;;;;;22.10;101658.00;;;;2072107;28;20705;-56
2021/09/02 01:00:57;;;;;;;4.32;4.03;;;;;22.10;101655.00;;;;2072086;28;20226;-55
2021/09/02 01:01:57;;;;;;;4.17;3.87;;;;;22.10;101662.00;;;;2072074;28;20578;-56
2021/09/02 01:02:58;;;;;;;4.63;4.23;;;;;22.10;101663.00;;;;2072266;28;20800;-55
2021/09/02 01:03:58;;;;;;;3.73;3.43;;;;;22.10;101668.00;;;;2072150;28;20337;-55
2021/09/02 01:04:58;;;;;;;3.57;3.30;;;;;22.10;101663.00;;;;2061467;28;20215;-55
2021/09/02 01:05:59;;;;;;;4.10;3.80;;;;;22.10;101659.00;;;;2060335;28;20234;-55
2021/09/02 01:06:59;;;;;;;4.17;3.87;;;;;22.10;101660.00;;;;2063860;28;20211;-56
2021/09/02 01:07:59;;;;;;;4.30;4.00;;;;;22.10;101658.00;;;;2063936;28;20758;-56
2021/09/02 01:09:00;;;;;;;4.10;3.73;;;;;22.10;101664.00;;;;2063090;28;20808;-56
2021/09/02 01:10:01;;;;;;;4.10;3.80;;;;;22.10;101665.00;;;;2061956;28;20219;-55
2021/09/02 01:11:01;;;;;;;4.43;4.03;;;;;22.10;101662.00;;;;2063184;28;20586;-55
2021/09/02 01:12:27;;;;;;;4.20;3.90;;;;;22.10;101658.00;;;;2062579;28;20750;-56
2021/09/02 01:13:29;;;;;;;4.00;3.70;;;;;22.10;101657.00;;;;2063269;28;20703;-55
2021/09/02 01:14:29;;;;;;;4.32;4.03;;;;;22.10;101660.00;;;;2063207;28;20219;-55
2021/09/02 01:15:32;;;;;;;4.30;4.00;;;;;22.10;101660.00;;;;2063389;28;20289;-55
2021/09/02 01:16:32;;;;;;;4.10;3.80;;;;;22.10;101654.00;;;;2063255;28;20647;-55
2021/09/02 01:17:33;;;;;;;4.87;4.33;;;;;22.10;101659.00;;;;2063592;28;20219;-56
2021/09/02 01:18:33;;;;;;;4.17;3.87;;;;;22.10;101657.00;;;;2060867;28;20215;-55
2021/09/02 01:19:33;;;;;;;4.10;3.80;;;;;22.10;101661.00;;;;2070700;28;20222;-55
2021/09/02 01:20:34;;;;;;;4.47;4.17;;;;;22.10;101661.00;;;;2070554;28;20225;-56
2021/09/02 01:21:34;;;;;;;4.20;3.90;;;;;22.10;101655.00;;;;2063406;28;20219;-55
2021/09/02 01:22:35;;;;;;;4.70;4.30;;;;;22.10;101658.00;;;;2062667;28;20207;-55
2021/09/02 01:23:38;;;;;;;4.53;4.13;;;;;22.10;101658.00;;;;2063130;28;20649;-56
2021/09/02 01:24:38;;;;;;;4.07;3.78;;;;;22.00;101660.00;;;;2061309;28;20257;-56
2021/09/02 01:25:42;;;;;;;4.27;3.97;;;;;22.10;101656.00;;;;2063791;28;20207;-56
2021/09/02 01:26:43;;;;;;;4.50;4.20;;;;;22.10;101653.00;;;;2063329;28;20234;-56
2021/09/02 01:27:45;;;;;;;4.83;4.53;;;;;22.10;101657.00;;;;2063993;28;20222;-56
2021/09/02 01:28:46;;;;;;;4.38;4.07;;;;;22.10;101657.00;;;;2063682;28;20227;-56
2021/09/02 01:29:51;;;;;;;3.80;3.50;;;;;22.10;101656.00;;;;2063921;28;20241;-56
2021/09/02 01:30:51;;;;;;;4.30;4.00;;;;;22.10;101655.00;;;;2060287;28;20231;-56
2021/09/02 01:31:53;;;;;;;4.23;3.93;;;;;22.10;101653.00;;;;2063043;28;20302;-55
2021/09/02 01:32:53;;;;;;;4.43;3.78;;;;;22.10;101655.00;;;;2062955;28;20218;-55
2021/09/02 01:33:54;;;;;;;4.03;3.73;;;;;22.10;101671.00;;;;2068031;28;20208;-56
2021/09/02 01:34:55;;;;;;;4.40;4.10;;;;;22.10;101663.00;;;;2066634;28;20222;-56
2021/09/02 01:35:56;;;;;;;4.72;4.32;;;;;22.10;101666.00;;;;2062853;28;20713;-55
2021/09/02 01:36:56;;;;;;;4.27;3.93;;;;;22.10;101662.00;;;;2063362;28;20225;-56
2021/09/02 01:37:57;;;;;;;3.97;3.67;;;;;22.10;101659.00;;;;2063249;28;20227;-56
2021/09/02 01:38:58;;;;;;;4.05;3.75;;;;;22.10;101671.00;;;;2070091;28;20210;-55
2021/09/02 01:39:58;;;;;;;4.37;4.03;;;;;22.10;101670.00;;;;2071205;28;20225;-56
2021/09/02 01:40:58;;;;;;;4.20;3.90;;;;;22.10;101657.00;;;;2071330;28;20957;-56
2021/09/02 01:41:59;;;;;;;4.20;3.90;;;;;22.10;101662.00;;;;2071739;28;20221;-55
2021/09/02 01:42:59;;;;;;;4.20;3.90;;;;;22.10;101660.00;;;;2071882;28;20222;-55
2021/09/02 01:44:00;;;;;;;4.27;3.97;;;;;22.10;101661.00;;;;2071394;28;20317;-56
2021/09/02 01:45:00;;;;;;;4.53;4.23;;;;;22.10;101654.00;;;;2071771;28;20465;-56
2021/09/02 01:46:00;;;;;;;4.67;4.33;;;;;22.10;101661.00;;;;2070692;28;20214;-55
2021/09/02 01:47:01;;;;;;;4.57;4.27;;;;;22.10;101658.00;;;;2071683;28;20218;-55
2021/09/02 01:48:02;;;;;;;4.40;4.10;;;;;22.10;101654.00;;;;2071887;28;20625;-55
2021/09/02 01:49:02;;;;;;;4.53;4.17;;;;;22.10;101659.00;;;;2071465;28;20214;-56
2021/09/02 01:50:23;;;;;;;4.03;3.73;;;;;22.10;101653.00;;;;2071424;28;20679;-55
2021/09/02 01:51:23;;;;;;;3.83;3.53;;;;;22.10;101656.00;;;;2069131;28;20628;-55
2021/09/02 01:52:23;;;;;;;4.03;3.73;;;;;22.10;101655.00;;;;2071709;28;20226;-56
2021/09/02 01:53:24;;;;;;;4.37;4.07;;;;;22.10;101659.00;;;;2071876;28;20229;-55
2021/09/02 01:54:24;;;;;;;4.77;4.30;;;;;22.10;101649.00;;;;2071151;28;20717;-56
2021/09/02 01:55:25;;;;;;;4.63;4.23;;;;;22.10;101659.00;;;;2071257;28;20678;-55
2021/09/02 01:56:25;;;;;;;4.20;3.90;;;;;22.10;101652.00;;;;2071911;28;20219;-56
2021/09/02 01:57:25;;;;;;;4.20;3.90;;;;;22.00;101662.00;;;;2070900;28;20465;-56
2021/09/02 01:58:26;;;;;;;4.50;4.10;;;;;22.00;101654.00;;;;2071030;28;20214;-55
2021/09/02 01:59:26;;;;;;;4.03;3.73;;;;;22.10;101649.00;;;;2070821;28;20211;-55
2021/09/02 02:00:27;;;;;;;4.50;4.17;;;;;22.10;101652.00;;;;2063671;28;20227;-55
2021/09/02 02:01:27;;;;;;;4.90;4.50;;;;;22.00;101648.00;;;;2062864;28;20219;-55
2021/09/02 02:02:27;;;;;;;4.30;4.00;;;;;22.10;101647.00;;;;2063142;28;20227;-56
2021/09/02 02:03:28;;;;;;;4.50;4.10;;;;;22.10;101648.00;;;;2063077;28;20237;-55
2021/09/02 02:04:28;;;;;;;4.37;4.00;;;;;22.00;101643.00;;;;2061986;28;20645;-55
2021/09/02 02:05:29;;;;;;;4.33;4.00;;;;;22.00;101644.00;;;;2067543;28;20237;-55
2021/09/02 02:06:29;;;;;;;4.53;4.13;;;;;22.10;101649.00;;;;2076315;28;20218;-55
2021/09/02 02:07:29;;;;;;;5.40;4.90;;;;;22.00;101643.00;;;;2068866;28;20265;-55
2021/09/02 02:08:30;;;;;;;4.40;4.00;;;;;22.10;101645.00;;;;2071342;28;20221;-55
2021/09/02 02:09:30;;;;;;;4.30;4.00;;;;;22.10;101649.00;;;;2071311;28;20253;-55
2021/09/02 02:10:31;;;;;;;4.40;4.10;;;;;22.10;101653.00;;;;2063768;28;20218;-55
2021/09/02 02:11:32;;;;;;;3.72;3.42;;;;;22.00;101650.00;;;;2062574;28;20310;-55
2021/09/02 02:12:32;;;;;;;4.30;4.00;;;;;22.00;101659.00;;;;2062542;28;20218;-55
2021/09/02 02:13:32;;;;;;;4.53;4.23;;;;;22.00;101649.00;;;;2063390;28;20729;-55
2021/09/02 02:14:33;;;;;;;3.90;3.60;;;;;22.00;101648.00;;;;2063635;28;20643;-56
2021/09/02 02:15:33;;;;;;;4.27;3.87;;;;;22.00;101654.00;;;;2061955;28;20285;-55
2021/09/02 02:16:34;;;;;;;4.00;3.70;;;;;22.00;101646.00;;;;2063674;28;24761;-55
2021/09/02 02:17:34;;;;;;;4.40;4.00;;;;;22.10;101650.00;;;;2063636;28;20219;-55
2021/09/02 02:18:34;;;;;;;4.50;4.13;;;;;22.10;101649.00;;;;2063379;28;20219;-56
2021/09/02 02:19:35;;;;;;;3.93;3.63;;;;;22.10;101647.00;;;;2063020;28;20227;-55
2021/09/02 02:20:35;;;;;;;4.57;4.17;;;;;22.10;101651.00;;;;2063613;28;20222;-55
2021/09/02 02:21:35;;;;;;;4.30;4.00;;;;;22.00;101643.00;;;;2063607;28;20210;-55
2021/09/02 02:22:36;;;;;;;5.20;4.70;;;;;22.00;101648.00;;;;2063476;28;20207;-55
2021/09/02 02:23:36;;;;;;;4.40;4.10;;;;;22.00;101644.00;;;;2063226;28;20687;-55
2021/09/02 02:24:37;;;;;;;4.27;3.97;;;;;22.00;101641.00;;;;2066341;28;20214;-55
2021/09/02 02:25:37;;;;;;;4.13;3.80;;;;;22.00;101646.00;;;;2071033;28;20250;-56
2021/09/02 02:26:37;;;;;;;4.70;4.30;;;;;22.00;101641.00;;;;2071033;28;20265;-55
2021/09/02 02:27:38;;;;;;;5.10;4.70;;;;;22.00;101648.00;;;;2071613;28;20241;-55
2021/09/02 02:28:39;;;;;;;4.13;3.83;;;;;22.00;101647.00;;;;2071561;28;20789;-55
2021/09/02 02:29:39;;;;;;;4.50;4.10;;;;;22.00;101646.00;;;;2071073;28;20218;-56
2021/09/02 02:30:40;;;;;;;3.90;3.60;;;;;22.00;101643.00;;;;2071556;28;20280;-55
2021/09/02 02:31:40;;;;;;;4.53;4.20;;;;;22.00;101633.00;;;;2070788;28;20590;-55
2021/09/02 02:32:40;;;;;;;4.10;3.80;;;;;22.00;101638.00;;;;2071399;28;20256;-55
2021/09/02 02:33:41;;;;;;;4.30;4.00;;;;;22.00;101648.00;;;;2071378;28;20225;-55
2021/09/02 02:34:41;;;;;;;4.30;3.90;;;;;22.00;101633.00;;;;2068220;28;20310;-55
2021/09/02 02:35:41;;;;;;;4.43;4.03;;;;;22.00;101638.00;;;;2064523;28;20218;-55
2021/09/02 02:36:42;;;;;;;3.73;3.43;;;;;22.00;101637.00;;;;2063357;28;20242;-55
2021/09/02 02:37:42;;;;;;;4.00;3.70;;;;;22.00;101637.00;;;;2063165;28;20219;-55
2021/09/02 02:38:42;;;;;;;4.23;3.93;;;;;22.00;101640.00;;;;2063137;28;20215;-55
2021/09/02 02:39:43;;;;;;;3.80;3.33;;;;;22.00;101629.00;;;;2064912;28;20210;-55
2021/09/02 02:40:43;;;;;;;4.40;4.00;;;;;22.00;101637.00;;;;2071430;28;20301;-56
2021/09/02 02:41:44;;;;;;;4.40;4.00;;;;;22.00;101643.00;;;;2071456;28;20584;-55
2021/09/02 02:42:44;;;;;;;4.30;4.00;;;;;22.00;101631.00;;;;2071490;28;20305;-55
2021/09/02 02:43:44;;;;;;;3.90;3.60;;;;;22.00;101632.00;;;;2067765;28;20207;-55
2021/09/02 02:44:45;;;;;;;3.80;3.50;;;;;22.00;101634.00;;;;2063381;28;20683;-55
2021/09/02 02:45:45;;;;;;;4.67;4.27;;;;;22.00;101631.00;;;;2063308;28;20226;-57
2021/09/02 02:46:45;;;;;;;4.10;3.80;;;;;22.00;101638.00;;;;2063479;28;20220;-55
2021/09/02 02:47:46;;;;;;;4.10;3.80;;;;;22.00;101631.00;;;;2063283;28;20241;-55
2021/09/02 02:48:46;;;;;;;4.03;3.73;;;;;22.00;101628.00;;;;2064991;28;20323;-55
2021/09/02 02:49:46;;;;;;;3.87;3.57;;;;;22.00;101627.00;;;;2071226;28;20301;-55
2021/09/02 02:50:47;;;;;;;4.70;4.30;;;;;22.00;101636.00;;;;2071451;28;20218;-56
2021/09/02 02:51:47;;;;;;;3.87;3.57;;;;;22.00;101627.00;;;;2071296;28;20217;-55
2021/09/02 02:52:47;;;;;;;4.00;3.70;;;;;22.00;101637.00;;;;2071423;28;20301;-55
2021/09/02 02:53:48;;;;;;;3.77;3.47;;;;;22.00;101642.00;;;;2070918;28;20312;-56
2021/09/02 02:54:48;;;;;;;4.00;3.70;;;;;22.00;101635.00;;;;2063288;28;20303;-56
2021/09/02 02:55:48;;;;;;;3.80;3.47;;;;;22.00;101633.00;;;;2062598;28;20265;-56
2021/09/02 02:56:49;;;;;;;4.33;4.03;;;;;22.00;101623.00;;;;2062938;28;20219;-55
2021/09/02 02:57:49;;;;;;;4.20;3.90;;;;;22.00;101628.00;;;;2063317;28;20211;-55
2021/09/02 02:58:49;;;;;;;4.10;3.80;;;;;22.00;101629.00;;;;2062978;28;20618;-55
2021/09/02 02:59:50;;;;;;;3.90;3.60;;;;;22.00;101639.00;;;;2065939;28;20226;-55
2021/09/02 03:00:50;;;;;;;3.97;3.67;;;;;22.00;101626.00;;;;2071381;28;20222;-54
2021/09/02 03:01:50;;;;;;;3.93;3.63;;;;;22.00;101634.00;;;;2071149;28;20581;-58
2021/09/02 03:02:51;;;;;;;4.70;4.30;;;;;22.00;101626.00;;;;2071198;28;20214;-57
2021/09/02 03:03:51;;;;;;;4.50;4.10;;;;;22.00;101633.00;;;;2071149;28;20210;-57
2021/09/02 03:04:51;;;;;;;4.27;3.90;;;;;22.00;101634.00;;;;2067680;28;20215;-57
2021/09/02 03:05:52;;;;;;;3.93;3.63;;;;;22.00;101630.00;;;;2063663;28;20226;-57
2021/09/02 03:06:52;;;;;;;4.40;4.03;;;;;22.00;101629.00;;;;2063012;28;20686;-57
2021/09/02 03:07:52;;;;;;;4.40;4.10;;;;;22.00;101635.00;;;;2062999;28;20590;-56
2021/09/02 03:08:53;;;;;;;3.90;3.60;;;;;22.00;101625.00;;;;2065728;28;20233;-57
2021/09/02 03:09:53;;;;;;;3.40;3.20;;;;;22.00;101631.00;;;;2071073;28;20261;-57
2021/09/02 03:10:53;;;;;;;3.90;3.60;;;;;22.00;101629.00;;;;2071225;28;20209;-56
2021/09/02 03:11:54;;;;;;;3.97;3.67;;;;;22.00;101630.00;;;;2071262;28;20405;-56
2021/09/02 03:12:54;;;;;;;4.27;3.90;;;;;22.00;101630.00;;;;2071151;28;20214;-56
2021/09/02 03:13:54;;;;;;;4.00;3.70;;;;;22.00;101627.00;;;;2071209;28;20582;-56
2021/09/02 03:14:55;;;;;;;3.87;3.57;;;;;22.00;101631.00;;;;2071257;28;20206;-56
2021/09/02 03:15:55;;;;;;;4.30;3.87;;;;;22.00;101626.00;;;;2071166;28;20210;-56
2021/09/02 03:16:55;;;;;;;4.20;3.90;;;;;22.00;101627.00;;;;2071148;28;20297;-55
2021/09/02 03:17:57;;;;;;;3.33;3.13;;;;;22.00;101626.00;;;;2071131;28;20206;-56
2021/09/02 03:18:57;;;;;;;3.88;3.58;;;;;22.00;101629.00;;;;2070800;28;20695;-56
2021/09/02 03:19:58;;;;;;;4.37;4.07;;;;;22.00;101630.00;;;;2071052;28;20222;-56
2021/09/02 03:20:58;;;;;;;3.93;3.63;;;;;22.00;101624.00;;;;2071062;28;20214;-55
2021/09/02 03:21:58;;;;;;;4.07;3.77;;;;;22.00;101621.00;;;;2071332;28;20512;-56
2021/09/02 03:22:59;;;;;;;4.23;3.83;;;;;22.00;101623.00;;;;2071055;28;20225;-56
2021/09/02 03:23:59;;;;;;;3.93;3.63;;;;;22.00;101617.00;;;;2070946;28;20218;-56
2021/09/02 03:24:59;;;;;;;4.17;3.87;;;;;22.00;101617.00;;;;2071188;28;20234;-56
2021/09/02 03:26:00;;;;;;;3.70;3.50;;;;;22.00;101613.00;;;;2070515;28;20309;-56
2021/09/02 03:27:00;;;;;;;3.93;3.63;;;;;22.00;101609.00;;;;2070292;28;20360;-56
2021/09/02 03:28:00;;;;;;;3.80;3.50;;;;;22.00;101614.00;;;;2071109;28;20895;-56
2021/09/02 03:29:01;;;;;;;3.90;3.60;;;;;22.00;101615.00;;;;2070557;28;20601;-56
2021/09/02 03:30:02;;;;;;;3.50;3.30;;;;;22.00;101617.00;;;;2071011;28;20221;-56
2021/09/02 03:31:02;;;;;;;4.07;3.78;;;;;22.00;101618.00;;;;2070492;28;20214;-55
2021/09/02 03:32:03;;;;;;;3.97;3.67;;;;;22.00;101616.00;;;;2070946;28;20615;-56
2021/09/02 03:33:03;;;;;;;4.00;3.70;;;;;22.00;101615.00;;;;2071022;28;20209;-56
2021/09/02 03:34:04;;;;;;;3.97;3.67;;;;;22.00;101614.00;;;;2070827;28;20218;-56
2021/09/02 03:35:05;;;;;;;4.03;3.73;;;;;22.00;101622.00;;;;2066234;28;20265;-56
2021/09/02 03:36:05;;;;;;;4.45;4.15;;;;;22.00;101616.00;;;;2062762;28;20360;-56
2021/09/02 03:37:06;;;;;;;4.10;3.80;;;;;22.00;101612.00;;;;2062974;28;20215;-56
2021/09/02 03:38:06;;;;;;;3.87;3.57;;;;;22.00;101613.00;;;;2062998;28;20301;-55
2021/09/02 03:39:07;;;;;;;4.00;3.70;;;;;22.00;101608.00;;;;2062210;28;20594;-56
2021/09/02 03:40:08;;;;;;;4.37;4.07;;;;;22.00;101618.00;;;;2062724;28;20598;-56
2021/09/02 03:41:08;;;;;;;3.70;3.47;;;;;22.00;101612.00;;;;2063111;28;20217;-56
2021/09/02 03:42:08;;;;;;;3.53;3.33;;;;;22.00;101620.00;;;;2062851;28;20746;-55
2021/09/02 03:43:09;;;;;;;3.80;3.60;;;;;22.00;101616.00;;;;2063041;28;20777;-56
2021/09/02 03:44:09;;;;;;;4.40;4.00;;;;;22.00;101624.00;;;;2062892;28;20230;-56
2021/09/02 03:45:10;;;;;;;3.97;3.67;;;;;22.00;101625.00;;;;2062854;28;20691;-55
2021/09/02 03:46:10;;;;;;;4.17;3.80;;;;;22.00;101622.00;;;;2062769;28;20714;-56
2021/09/02 03:47:10;;;;;;;3.93;3.63;;;;;22.00;101621.00;;;;2062287;28;20206;-56
2021/09/02 03:48:11;;;;;;;3.90;3.60;;;;;22.00;101622.00;;;;2062948;28;20211;-56
2021/09/02 03:49:11;;;;;;;4.10;3.80;;;;;22.00;101622.00;;;;2062493;28;20271;-56
2021/09/02 03:50:12;;;;;;;3.80;3.50;;;;;22.00;101625.00;;;;2062665;28;20215;-55
2021/09/02 03:51:12;;;;;;;4.10;3.80;;;;;22.00;101624.00;;;;2063033;28;20211;-56
2021/09/02 03:52:12;;;;;;;3.60;3.30;;;;;22.00;101623.00;;;;2062931;28;20211;-56
2021/09/02 03:53:13;;;;;;;4.10;3.73;;;;;22.00;101619.00;;;;2063045;28;20214;-55
2021/09/02 03:54:13;;;;;;;4.10;3.80;;;;;22.00;101621.00;;;;2062808;28;20211;-55
2021/09/02 03:55:13;;;;;;;4.37;4.00;;;;;22.00;101627.00;;;;2062941;28;20211;-56
2021/09/02 03:56:14;;;;;;;4.07;3.77;;;;;22.00;101622.00;;;;2062521;28;20211;-55
2021/09/02 03:57:14;;;;;;;3.93;3.53;;;;;22.00;101619.00;;;;2062515;28;20214;-55
2021/09/02 03:58:14;;;;;;;3.70;3.40;;;;;22.00;101619.00;;;;2062995;28;20249;-55
2021/09/02 03:59:15;;;;;;;3.97;3.63;;;;;22.00;101622.00;;;;2062523;28;20218;-56
2021/09/02 04:00:15;;;;;;;3.93;3.63;;;;;22.00;101614.00;;;;2062668;28;20277;-55
2021/09/02 04:01:15;;;;;;;4.47;4.10;;;;;22.00;101619.00;;;;2062634;28;20610;-56
2021/09/02 04:02:16;;;;;;;3.70;3.43;;;;;22.00;101614.00;;;;2062868;28;20261;-56
2021/09/02 04:03:16;;;;;;;3.70;3.40;;;;;22.00;101615.00;;;;2062874;28;20221;-55
2021/09/02 04:04:16;;;;;;;4.07;3.70;;;;;22.00;101625.00;;;;2062572;28;20213;-55
2021/09/02 04:05:17;;;;;;;3.60;3.40;;;;;22.00;101621.00;;;;2064361;28;20330;-56
2021/09/02 04:06:17;;;;;;;3.93;3.63;;;;;22.00;101617.00;;;;2062676;28;20223;-56
2021/09/02 04:07:17;;;;;;;3.97;3.67;;;;;22.00;101621.00;;;;2063278;28;20262;-56
2021/09/02 04:08:18;;;;;;;4.07;3.77;;;;;22.00;101618.00;;;;2064636;28;20443;-55
2021/09/02 04:09:18;;;;;;;4.20;3.90;;;;;22.00;101623.00;;;;2064252;28;20305;-55
2021/09/02 04:10:19;;;;;;;3.53;3.23;;;;;22.00;101621.00;;;;2064585;28;20586;-56
2021/09/02 04:11:19;;;;;;;3.70;3.40;;;;;22.00;101619.00;;;;2063398;28;20219;-56
2021/09/02 04:12:19;;;;;;;3.60;3.37;;;;;22.00;101624.00;;;;2064398;28;20209;-56
2021/09/02 04:13:20;;;;;;;3.90;3.60;;;;;22.00;101627.00;;;;2064537;28;20218;-56
2021/09/02 04:14:20;;;;;;;3.90;3.60;;;;;22.00;101626.00;;;;2064310;28;20281;-56
2021/09/02 04:15:20;;;;;;;3.83;3.53;;;;;22.00;101620.00;;;;2064622;28;20293;-55
2021/09/02 04:16:22;;;;;;;3.80;3.50;;;;;22.00;101634.00;;;;2064473;28;20412;-56
2021/09/02 04:17:23;;;;;;;4.00;3.70;;;;;22.00;101628.00;;;;2063794;28;20221;-55
2021/09/02 04:18:23;;;;;;;3.80;3.50;;;;;22.00;101622.00;;;;2064413;28;20690;-55
2021/09/02 04:19:23;;;;;;;4.00;3.70;;;;;22.00;101626.00;;;;2064054;28;20249;-55
2021/09/02 04:20:24;;;;;;;3.77;3.47;;;;;22.00;101627.00;;;;2064365;28;20281;-56
2021/09/02 04:21:24;;;;;;;4.23;3.93;;;;;22.00;101621.00;;;;2060680;28;20222;-56
2021/09/02 04:22:24;;;;;;;3.63;3.33;;;;;22.00;101628.00;;;;2064346;28;20604;-56
2021/09/02 04:23:25;;;;;;;3.97;3.67;;;;;21.90;101627.00;;;;2064465;28;20222;-56
2021/09/02 04:24:26;;;;;;;3.80;3.50;;;;;22.00;101617.00;;;;2064420;28;20223;-55
2021/09/02 04:25:26;;;;;;;3.78;3.50;;;;;22.00;101620.00;;;;2064348;28;20590;-55
2021/09/02 04:26:27;;;;;;;3.73;3.43;;;;;22.00;101615.00;;;;2064508;28;20233;-56
2021/09/02 04:27:27;;;;;;;3.53;3.23;;;;;22.00;101622.00;;;;2064239;28;20606;-55
2021/09/02 04:28:27;;;;;;;3.97;3.67;;;;;22.00;101616.00;;;;2063222;28;20302;-55
2021/09/02 04:29:28;;;;;;;3.93;3.63;;;;;22.00;101621.00;;;;2063902;28;20262;-55
2021/09/02 04:30:28;;;;;;;4.30;4.00;;;;;22.00;101613.00;;;;2064299;28;20234;-55
2021/09/02 04:31:29;;;;;;;4.37;4.07;;;;;21.90;101625.00;;;;2064173;28;20219;-55
2021/09/02 04:32:29;;;;;;;4.10;3.80;;;;;21.90;101619.00;;;;2064337;28;20296;-55
2021/09/02 04:33:29;;;;;;;3.97;3.67;;;;;22.00;101613.00;;;;2064224;28;20751;-55
2021/09/02 04:34:30;;;;;;;3.87;3.57;;;;;22.00;101618.00;;;;2064195;28;20671;-55
2021/09/02 04:35:30;;;;;;;3.83;3.53;;;;;22.00;101617.00;;;;2066372;28;20215;-55
2021/09/02 04:36:30;;;;;;;3.73;3.43;;;;;22.00;101620.00;;;;2064353;28;20222;-55
2021/09/02 04:37:38;;;;;;;4.10;3.80;;;;;22.00;101606.00;;;;2064135;28;20223;-56
2021/09/02 04:38:38;;;;;;;4.45;4.10;;;;;22.00;101618.00;;;;2054728;28;20302;-56
2021/09/02 04:39:38;;;;;;;3.87;3.57;;;;;22.00;101613.00;;;;2063161;28;20207;-55
2021/09/02 04:40:39;;;;;;;3.73;3.47;;;;;22.00;101612.00;;;;2064286;28;20679;-55
2021/09/02 04:41:39;;;;;;;3.80;3.50;;;;;22.00;101608.00;;;;2064385;28;20215;-56
2021/09/02 04:42:39;;;;;;;3.57;3.27;;;;;22.00;101609.00;;;;2067255;28;20210;-56
2021/09/02 04:43:40;;;;;;;3.83;3.53;;;;;22.00;101608.00;;;;2072180;28;20206;-55
2021/09/02 04:44:40;;;;;;;3.67;3.37;;;;;21.90;101604.00;;;;2072232;28;20219;-56
2021/09/02 04:45:41;;;;;;;3.47;3.17;;;;;21.90;101607.00;;;;2072396;28;20221;-56
2021/09/02 04:46:41;;;;;;;5.80;3.47;;;;;22.00;101618.00;;;;2072317;28;20222;-56
2021/09/02 04:47:41;;;;;;;4.23;3.87;;;;;22.00;101616.00;;;;2071141;28;20698;-56
2021/09/02 04:48:42;;;;;;;3.70;3.40;;;;;21.90;101604.00;;;;2064107;28;20571;-56
2021/09/02 04:49:42;;;;;;;3.60;3.30;;;;;22.00;101612.00;;;;2063813;28;20586;-56
2021/09/02 04:50:43;;;;;;;3.67;3.40;;;;;22.00;101606.00;;;;2064299;28;20595;-56
2021/09/02 04:51:43;;;;;;;3.50;3.20;;;;;22.00;101604.00;;;;2064229;28;20222;-55
2021/09/02 04:52:43;;;;;;;3.90;3.60;;;;;22.00;101602.00;;;;2064206;28;20203;-55
2021/09/02 04:53:44;;;;;;;3.73;3.50;;;;;22.00;101609.00;;;;2064167;28;20234;-56
2021/09/02 04:54:44;;;;;;;3.57;3.27;;;;;22.00;101608.00;;;;2063216;28;20214;-56
2021/09/02 04:55:44;;;;;;;3.90;3.60;;;;;21.90;101605.00;;;;2063386;28;20360;-55
2021/09/02 04:56:45;;;;;;;4.40;4.00;;;;;22.00;101613.00;;;;2063854;28;20203;-56
2021/09/02 04:57:45;;;;;;;4.03;3.70;;;;;22.00;101609.00;;;;2064074;28;20207;-56
2021/09/02 04:58:45;;;;;;;3.73;3.43;;;;;22.00;101603.00;;;;2062586;28;20860;-56
2021/09/02 04:59:46;;;;;;;3.80;3.50;;;;;22.00;101603.00;;;;2063613;28;20562;-55